Deer Lodge, Tennessee
Current Conditions -  °F | °C
As of 7:10 AM on Tuesday 27 Jan 2015 (Local Time) from KCSV Reporting Station
Haze Haze  
Wind Chill: 23°   Ceiling: 400
Heat Index: 31°   Visibility: 3mi
Dew Point: 28°   Wind: 8mph
Humidity: 89%   Direction: 290°WNW
Pressure: 29.87"   Gusts: NA
Location:  36.2°N, 84.76°W
Report Text: KCSV 271210Z AUTO 29007KT 3SM BR OVC004 M01/M02 A2987 RMK AO2 T10061022
Loading
Personal Weather Stations






























Interactive Weather Map New forecast layout! Learn more

10-Day Weather Forecast

Advertisements
Track Severe Weather on mobile